Bridgeton, MO (63044)

7:20 PM CDT on July 28, 2016 (GMT -0500)
Depaul Hills | | Change Station

Elev 571 ft 38.75 °N, 90.42 °W | Updated 13 seconds ago

Mostly Cloudy
Mostly Cloudy
83.5 °F
Feels Like 89 °F
N
0.4
Wind Variable Wind from NNW
Gusts 2.5 mph

Today
High -- | Low -- °F
--% Chance of Precip.
Yesterday
High -- | Low -- °F
Precip. -- in
Pressure 29.84 in
Visibility 10.0 miles
Clouds Few 3200 ft
Scattered Clouds 13000 ft
Mostly Cloudy 25000 ft
Heat Index 89 °F
Dew Point 71 °F
Humidity 67%
Rainfall 0.00 in
Snow Depth Not available.
5:59 AM 8:15 PM
Waning Crescent, 27% visible
METAR KSTL 282351Z 35008KT 10SM FEW032 SCT130 BKN250 31/21 A2988 RMK AO2 SLP105 T03060211 10328 20306 50006
Pressure 29.84 in
Visibility 10.0 miles
Clouds Few 3200 ft
Scattered Clouds 13000 ft
Mostly Cloudy 25000 ft
Heat Index 89 °F
Dew Point 71 °F
Humidity 67%
Rainfall 0.00 in
Snow Depth Not available.
5:59 AM 8:15 PM
Waning Crescent, 27% visible
METAR KSTL 282351Z 35008KT 10SM FEW032 SCT130 BKN250 31/21 A2988 RMK AO2 SLP105 T03060211 10328 20306 50006

10-Day Weather Forecast

Almanac

Astronomy

Jul. 28, 2016 Rise Set
Actual Time
Civil Twilight
Nautical Twilight
Astronomical Twilight
Moon
Length of Visible Light
Length of Day
Tomorrow will be .
, % of the Moon is Illuminated

Today's Extremes

State Highs State Lows

Community

WunderPhotos

Upload Photos

1,928,239 photos uploaded!

WunderBlog® & News

Nearby

Air Quality

  Air Quality AQ Index Pollutant
Not available.

Snow Depth

Station Depth Elevation

Earthquake Activity

City Distance Mag. Time & Date
Minimum magnitude displayed is 2.5.

Coastal Water Temperatures

Place Temperature

Stations

Nearby Weather Stations

Station Location Temp. Windchill Dew Point Humidity Wind Precip. Elev Updated Type
                   

Watches & Warnings

There are currently no watches in effect.